createdAt,value
2018-05-11T00:04:16.623Z,6.47
2018-05-11T00:10:11.735Z,6.23
2018-05-11T00:16:06.619Z,5.7
2018-05-11T00:22:01.690Z,6.15
2018-05-11T00:27:56.650Z,6.44
2018-05-11T00:33:51.708Z,6.34
2018-05-11T00:39:46.682Z,6.19
2018-05-11T00:45:41.657Z,5.89
2018-05-11T00:51:36.682Z,5.65
2018-05-11T00:57:31.657Z,5.61
2018-05-11T01:03:26.641Z,6.56
2018-05-11T01:09:21.650Z,5.3
2018-05-11T01:15:16.679Z,6.46
2018-05-11T01:21:11.686Z,6.3
2018-05-11T01:27:06.707Z,7.74
2018-05-11T01:33:01.665Z,7.67
2018-05-11T01:38:56.740Z,8.44
2018-05-11T01:44:51.700Z,6.8
2018-05-11T01:50:46.708Z,8.15
2018-05-11T01:56:41.713Z,8.51
2018-05-11T02:02:36.728Z,8.17
2018-05-11T02:08:31.715Z,7.71
2018-05-11T02:14:26.726Z,6.5
2018-05-11T02:20:21.699Z,6.81
2018-05-11T02:26:16.715Z,6.83
2018-05-11T02:32:11.722Z,7.49
2018-05-11T02:38:06.708Z,7.22
2018-05-11T02:44:01.729Z,7.57
2018-05-11T02:49:56.734Z,6.46
2018-05-11T02:55:51.704Z,7.09
2018-05-11T03:01:46.692Z,7.4
2018-05-11T03:07:41.715Z,6.97
2018-05-11T03:13:36.730Z,5.95
2018-05-11T03:19:31.699Z,6.73
2018-05-11T03:25:26.734Z,6.84
2018-05-11T03:31:21.774Z,7.97
2018-05-11T03:37:16.746Z,7.99
2018-05-11T03:43:11.784Z,9.06
2018-05-11T03:49:06.773Z,9.72
2018-05-11T03:55:01.762Z,9.1
2018-05-11T04:00:56.754Z,8.16
2018-05-11T04:06:51.754Z,7.96
2018-05-11T04:12:46.766Z,7.45
2018-05-11T04:18:41.765Z,7.98
2018-05-11T04:24:36.762Z,7.51
2018-05-11T04:30:31.792Z,8.1
2018-05-11T04:36:26.784Z,9.72
2018-05-11T04:42:21.783Z,9.45
2018-05-11T04:48:16.798Z,7.43
2018-05-11T04:54:11.849Z,7.87
2018-05-11T05:00:06.808Z,7.09
2018-05-11T05:06:01.792Z,7.46
2018-05-11T05:11:56.800Z,8.04
2018-05-11T05:17:51.816Z,7.61
2018-05-11T05:23:46.786Z,7.26
2018-05-11T05:29:41.827Z,9.6
2018-05-11T05:35:36.799Z,9.53
2018-05-11T05:41:31.852Z,8.73
2018-05-11T05:47:26.828Z,8.03
2018-05-11T05:53:21.819Z,9.86
2018-05-11T05:59:16.827Z,10.43
2018-05-11T06:05:11.872Z,9.54
2018-05-11T06:11:06.806Z,8.15
2018-05-11T06:17:01.901Z,11.33
2018-05-11T06:22:56.811Z,9.42
2018-05-11T06:28:51.867Z,10.9
2018-05-11T06:34:46.833Z,14.14
2018-05-11T06:40:41.844Z,13.98
2018-05-11T06:46:36.853Z,15.86
2018-05-11T06:52:31.837Z,17.23
2018-05-11T06:58:26.902Z,15.42
2018-05-11T07:04:21.835Z,16.38
2018-05-11T07:10:16.957Z,11.15
2018-05-11T07:16:11.850Z,15.61
2018-05-11T07:22:06.850Z,12.3
2018-05-11T07:28:01.882Z,11.9
2018-05-11T07:33:56.875Z,13.2
2018-05-11T07:39:51.926Z,11.18
2018-05-11T07:45:46.897Z,7.62
2018-05-11T07:51:41.962Z,11.44
2018-05-11T07:57:36.873Z,12.71
2018-05-11T08:03:31.872Z,8.93
2018-05-11T08:09:26.894Z,10.3
2018-05-11T08:15:21.895Z,15
2018-05-11T08:21:16.966Z,13.99
2018-05-11T08:27:11.936Z,8.86
2018-05-11T08:33:06.915Z,7.46
2018-05-11T08:39:02.006Z,10.9
2018-05-11T08:44:56.920Z,14.73
2018-05-11T08:50:51.982Z,13.59
2018-05-11T08:56:46.901Z,13.56
2018-05-11T09:02:41.926Z,8.28
2018-05-11T09:08:37.106Z,11.2
2018-05-11T09:14:31.937Z,9.88
2018-05-11T09:20:26.947Z,11.86
2018-05-11T09:26:21.924Z,10.4
2018-05-11T09:32:16.921Z,9.56
2018-05-11T09:38:11.958Z,6.98
2018-05-11T09:44:06.996Z,16.56
2018-05-11T09:50:02.094Z,9.7
2018-05-11T09:55:56.936Z,8.46
2018-05-11T10:01:51.999Z,8.63
2018-05-11T10:07:47.046Z,7.88
2018-05-11T10:13:41.975Z,9.24
2018-05-11T10:19:36.996Z,8.12
2018-05-11T10:25:31.964Z,8.27
2018-05-11T10:31:26.954Z,12.09
2018-05-11T10:37:21.985Z,10.77
2018-05-11T10:43:16.957Z,10.81
2018-05-11T10:49:12.007Z,11
2018-05-11T10:55:07.021Z,9.89
2018-05-11T11:01:01.989Z,9.21
2018-05-11T11:06:56.995Z,12.84
2018-05-11T11:12:51.994Z,15.36
2018-05-11T11:18:46.996Z,11.13
2018-05-11T11:24:42.014Z,13.83
2018-05-11T11:30:37.026Z,11.97
2018-05-11T11:36:31.997Z,11.43
2018-05-11T11:42:27.046Z,11.98
2018-05-11T11:48:22.013Z,9.13
2018-05-11T11:54:17.063Z,9.82
2018-05-11T12:00:11.993Z,9.47
2018-05-11T12:06:07.050Z,10.66
2018-05-11T12:12:02.061Z,13.2
2018-05-11T12:17:57.030Z,9.02
2018-05-11T12:23:52.043Z,8.91
2018-05-11T12:29:47.084Z,8.99
2018-05-11T12:35:42.098Z,8.35
2018-05-11T12:41:37.063Z,8.68
2018-05-11T12:47:32.052Z,8.65
2018-05-11T12:53:27.070Z,8.2
2018-05-11T12:59:22.045Z,9.3
2018-05-11T13:05:17.137Z,7.72
2018-05-11T13:11:12.082Z,7.81
2018-05-11T13:17:07.101Z,7.17
2018-05-11T13:23:02.071Z,8.11
2018-05-11T13:28:57.098Z,8.07
2018-05-11T13:34:52.094Z,7.37
2018-05-11T13:40:47.064Z,7.3
2018-05-11T13:46:42.109Z,6.69
2018-05-11T13:52:37.080Z,7.02
2018-05-11T13:58:32.080Z,6.82
2018-05-11T14:04:27.074Z,6.68
2018-05-11T14:10:22.171Z,6.49
2018-05-11T14:16:17.081Z,6.16
2018-05-11T14:22:12.142Z,6.81
2018-05-11T14:28:07.103Z,6.48
2018-05-11T14:34:02.102Z,7.32
2018-05-11T14:39:57.112Z,8.26
2018-05-11T14:45:52.111Z,6.51
2018-05-11T14:51:47.099Z,6.27
2018-05-11T14:57:42.103Z,6.21
2018-05-11T15:03:37.176Z,6.26
2018-05-11T15:09:32.113Z,6.11
2018-05-11T15:15:27.179Z,7.17
2018-05-11T15:21:22.111Z,5.01
2018-05-11T15:27:17.121Z,5.73
2018-05-11T15:33:12.132Z,7.03
2018-05-11T15:39:07.152Z,5.8
2018-05-11T15:45:02.304Z,11.17
2018-05-11T15:50:57.117Z,11.77
2018-05-11T15:56:52.195Z,10.88
2018-05-11T16:02:47.148Z,5.16
2018-05-11T16:08:42.141Z,7.16
2018-05-11T16:14:37.188Z,9.47
2018-05-11T16:20:32.240Z,5.62
2018-05-11T16:26:27.204Z,7.34
2018-05-11T16:32:22.184Z,7.49
2018-05-11T16:38:17.210Z,7.18
2018-05-11T16:44:12.178Z,5.67
2018-05-11T16:50:07.227Z,5.1
2018-05-11T16:56:02.269Z,4.27
2018-05-11T17:01:57.186Z,4.75
2018-05-11T17:07:52.181Z,4.98
2018-05-11T17:13:47.178Z,5.69
2018-05-11T17:19:42.183Z,5.59
2018-05-11T17:25:37.175Z,5.3
2018-05-11T17:31:32.223Z,5.33
2018-05-11T17:37:27.176Z,4.91
2018-05-11T17:43:22.197Z,5.13
2018-05-11T17:49:17.215Z,6.19
2018-05-11T17:55:12.217Z,6.03
2018-05-11T18:01:07.235Z,6.1
2018-05-11T18:07:02.268Z,5.97
2018-05-11T18:12:57.239Z,8.42
2018-05-11T18:18:52.270Z,7.02
2018-05-11T18:24:47.301Z,9.33
2018-05-11T18:30:42.241Z,9.26
2018-05-11T18:36:37.415Z,10.67
2018-05-11T18:42:32.259Z,12.03
2018-05-11T18:48:27.307Z,10.38
2018-05-11T18:54:22.617Z,10.14
2018-05-11T19:00:17.248Z,9.04
2018-05-11T19:06:12.268Z,11.93
2018-05-11T19:12:07.283Z,10.29
2018-05-11T19:18:02.281Z,11.55
2018-05-11T19:23:57.291Z,12.69
2018-05-11T19:29:52.255Z,8.62
2018-05-11T19:35:47.296Z,10.55
2018-05-11T19:41:42.271Z,9.74
2018-05-11T19:47:37.288Z,10.74
2018-05-11T19:53:32.279Z,8.85
2018-05-11T19:59:27.301Z,11.18
2018-05-11T20:05:22.298Z,9.71
2018-05-11T20:11:17.358Z,9.12
2018-05-11T20:17:12.317Z,9.22
2018-05-11T20:23:07.279Z,9.81
2018-05-11T20:29:02.301Z,9.58
2018-05-11T20:34:57.287Z,9.06
2018-05-11T20:40:52.317Z,10.57
2018-05-11T20:46:47.307Z,11.12
2018-05-11T20:52:42.333Z,9.33
2018-05-11T20:58:37.338Z,9.99
2018-05-11T21:04:32.330Z,10.15
2018-05-11T21:10:27.391Z,9.69
2018-05-11T21:16:22.350Z,10.68
2018-05-11T21:22:17.353Z,10.01
2018-05-11T21:28:12.364Z,9.03
2018-05-11T21:34:07.393Z,11.21
2018-05-11T21:40:02.380Z,10.87
2018-05-11T21:45:57.364Z,9.89
2018-05-11T21:51:52.370Z,10.45
2018-05-11T21:57:47.379Z,10.01
2018-05-11T22:03:42.337Z,10.64
2018-05-11T22:09:37.382Z,10.74
2018-05-11T22:15:32.373Z,11.18
2018-05-11T22:21:27.331Z,11.3
2018-05-11T22:27:22.385Z,10.07
2018-05-11T22:33:17.385Z,11.29
2018-05-11T22:39:12.430Z,12.24
2018-05-11T22:45:07.408Z,11.03
2018-05-11T22:51:02.375Z,11.12
2018-05-11T22:56:57.392Z,9.4
2018-05-11T23:02:52.380Z,11.13
2018-05-11T23:08:47.365Z,11.9
2018-05-11T23:14:42.377Z,12.94
2018-05-11T23:20:37.395Z,13.32
2018-05-11T23:26:32.444Z,9.27
2018-05-11T23:32:27.371Z,14.46
2018-05-11T23:38:22.392Z,10.64
2018-05-11T23:44:17.390Z,10.16
2018-05-11T23:50:12.436Z,10.16
2018-05-11T23:56:07.474Z,11.17
